Time;durP1;ratioP1;P1;durP2;ratioP2;P2;SDS_P1;SDS_P2;PMS_P1;PMS_P2;Temp;Humidity;BMP_temperature;BMP_pressure;BME280_temperature;BME280_humidity;BME280_pressure;Samples;Min_cycle;Max_cycle;Signal;HPM_P1;HPM_P2
2022/07/16 00:03:24;;;;;;;2.73;2.53;;;20.70;41.00;;;;;;5078861;27;20460;-89
2022/07/16 00:05:51;;;;;;;2.73;2.53;;;20.90;40.90;;;;;;5142417;27;20993;-88
2022/07/16 00:08:19;;;;;;;6.00;2.73;;;21.00;40.40;;;;;;5143949;27;20509;-87
2022/07/16 00:10:46;;;;;;;3.87;3.00;;;21.10;40.20;;;;;;5105954;27;21159;-88
2022/07/16 00:17:19;;;;;;;4.63;2.50;;;21.20;40.40;;;;;;5103180;27;20949;-88
2022/07/16 00:24:20;;;;;;;3.70;2.70;;;21.00;41.00;;;;;;5123390;27;20464;-87
2022/07/16 00:26:47;;;;;;;2.60;2.40;;;20.90;41.30;;;;;;5120243;27;20456;-86
2022/07/16 00:29:17;;;;;;;2.70;2.50;;;20.90;41.30;;;;;;5107319;27;20468;-87
2022/07/16 00:31:45;;;;;;;8.10;2.73;;;21.00;41.50;;;;;;5124490;27;20488;-87
2022/07/16 00:34:12;;;;;;;6.10;3.20;;;21.00;41.50;;;;;;5120984;27;20472;-87
2022/07/16 00:36:40;;;;;;;2.83;2.60;;;21.00;41.60;;;;;;5122320;27;20441;-87
2022/07/16 00:39:09;;;;;;;3.77;2.27;;;20.90;42.40;;;;;;5118413;27;21503;-87
2022/07/16 00:41:39;;;;;;;2.43;2.23;;;20.90;42.20;;;;;;5125594;27;20974;-87
2022/07/16 00:44:09;;;;;;;3.00;2.70;;;20.90;42.00;;;;;;5097169;27;20500;-88
2022/07/16 00:46:38;;;;;;;3.50;2.30;;;20.90;41.50;;;;;;5121921;27;20520;-87
2022/07/16 00:49:06;;;;;;;4.53;3.03;;;20.90;41.40;;;;;;5118135;27;20459;-88
2022/07/16 00:51:36;;;;;;;3.33;2.60;;;20.90;41.30;;;;;;5140063;27;20742;-88
2022/07/16 00:54:04;;;;;;;3.63;3.10;;;20.80;41.90;;;;;;5139539;27;21341;-87
2022/07/16 00:56:31;;;;;;;4.67;2.73;;;20.70;42.70;;;;;;5142033;27;20460;-89
2022/07/16 00:58:59;;;;;;;3.83;3.03;;;20.60;42.50;;;;;;5119667;27;21376;-87
2022/07/16 01:01:27;;;;;;;6.60;2.53;;;20.60;42.50;;;;;;5138603;27;20441;-89
2022/07/16 01:03:54;;;;;;;5.67;3.20;;;20.60;42.60;;;;;;5141649;27;20471;-87
2022/07/16 01:06:22;;;;;;;4.73;2.83;;;20.40;43.60;;;;;;5120189;27;20452;-88
2022/07/16 01:08:50;;;;;;;4.00;3.57;;;20.20;44.00;;;;;;5122072;27;20552;-86
2022/07/16 01:11:18;;;;;;;3.60;2.80;;;20.30;43.60;;;;;;5127629;27;21001;-87
2022/07/16 01:13:48;;;;;;;6.93;3.03;;;20.40;43.30;;;;;;5121182;27;21014;-89
2022/07/16 01:16:18;;;;;;;3.70;2.70;;;20.40;42.90;;;;;;5083949;27;20450;-88
2022/07/16 01:18:46;;;;;;;3.83;2.80;;;20.20;43.40;;;;;;5109895;27;20638;-89
2022/07/16 01:21:14;;;;;;;5.50;3.00;;;20.20;44.20;;;;;;5131959;27;20473;-87
2022/07/16 01:23:45;;;;;;;13.33;5.20;;;20.20;43.80;;;;;;5119035;27;20453;-89
2022/07/16 01:26:16;;;;;;;3.03;2.73;;;20.10;43.50;;;;;;5130531;27;20443;-87
2022/07/16 01:28:43;;;;;;;5.00;3.10;;;20.20;43.50;;;;;;5104745;27;20532;-88
2022/07/16 01:31:11;;;;;;;5.07;3.30;;;19.60;43.60;;;;;;5114010;27;20847;-86
2022/07/16 01:33:39;;;;;;;7.93;2.93;;;19.70;44.40;;;;;;5127495;27;20979;-89
2022/07/16 01:36:32;;;;;;;5.13;3.17;;;19.70;44.40;;;;;;5102037;27;20445;-90
2022/07/16 01:39:01;;;;;;;4.47;2.77;;;19.80;43.50;;;;;;5137396;27;20452;-88
2022/07/16 01:42:18;;;;;;;6.93;2.57;;;19.80;44.00;;;;;;5138894;27;20441;-87
2022/07/16 01:44:45;;;;;;;4.10;2.90;;;19.80;44.00;;;;;;5117153;27;20475;-88
2022/07/16 01:47:13;;;;;;;4.03;2.63;;;19.80;44.10;;;;;;5118214;27;20528;-87
2022/07/16 01:49:41;;;;;;;6.93;3.17;;;19.70;44.10;;;;;;5135456;27;20469;-87
2022/07/16 01:52:33;;;;;;;3.60;3.20;;;19.70;44.20;;;;;;5134712;27;20738;-88
2022/07/16 01:55:01;;;;;;;3.57;3.00;;;19.80;44.00;;;;;;5094261;27;20460;-87
2022/07/16 01:57:28;;;;;;;5.43;3.00;;;19.70;43.80;;;;;;5141081;27;20512;-88
2022/07/16 01:59:55;;;;;;;12.20;3.53;;;19.40;43.50;;;;;;5121447;27;20938;-89
2022/07/16 02:02:22;;;;;;;2.57;2.37;;;19.40;44.10;;;;;;5134868;27;22201;-87
2022/07/16 02:04:49;;;;;;;2.70;2.50;;;19.40;44.00;;;;;;5079360;27;20445;-88
2022/07/16 02:07:16;;;;;;;4.00;3.30;;;19.50;43.70;;;;;;5102027;27;21089;-88
2022/07/16 02:09:43;;;;;;;5.80;2.83;;;19.60;43.60;;;;;;5123035;27;20472;-87
2022/07/16 02:12:12;;;;;;;5.83;3.40;;;19.60;43.60;;;;;;5134600;27;21125;-88
2022/07/16 02:14:39;;;;;;;4.27;3.40;;;19.60;43.90;;;;;;5141466;27;20472;-88
2022/07/16 02:17:06;;;;;;;5.50;3.70;;;19.60;43.90;;;;;;5135320;27;21031;-88
2022/07/16 02:19:33;;;;;;;7.47;5.40;;;19.50;43.60;;;;;;5121989;27;20463;-87
2022/07/16 02:22:01;;;;;;;4.83;4.30;;;19.50;44.00;;;;;;5092822;27;20447;-88
2022/07/16 02:24:28;;;;;;;4.30;3.37;;;19.50;43.90;;;;;;5137206;27;20540;-87
2022/07/16 02:26:55;;;;;;;4.17;3.77;;;19.40;44.00;;;;;;5141165;27;20999;-89
2022/07/16 02:29:23;;;;;;;4.73;4.20;;;19.50;44.00;;;;;;5117687;27;20460;-88
2022/07/16 02:31:50;;;;;;;7.90;4.70;;;19.40;44.10;;;;;;5139904;27;20461;-88
2022/07/16 02:34:17;;;;;;;5.50;3.40;;;19.40;44.10;;;;;;5093106;27;20915;-89
2022/07/16 02:36:44;;;;;;;5.70;3.87;;;19.40;44.00;;;;;;5124495;27;20856;-88
2022/07/16 02:39:11;;;;;;;5.43;3.23;;;19.30;43.90;;;;;;5134461;27;20473;-88
2022/07/16 02:49:54;;;;;;;3.03;2.73;;;19.20;45.70;;;;;;5140004;27;20440;-88
2022/07/16 02:52:21;;;;;;;3.73;2.90;;;19.10;46.70;;;;;;5088433;27;20449;-89
2022/07/16 02:54:48;;;;;;;4.63;3.50;;;19.10;46.00;;;;;;5100657;27;20825;-88
2022/07/16 02:58:06;;;;;;;3.00;2.70;;;19.00;46.50;;;;;;5097004;27;20441;-87
2022/07/16 03:00:57;;;;;;;4.33;2.80;;;19.00;45.70;;;;;;5120740;27;20491;-88
2022/07/16 03:03:25;;;;;;;3.87;3.23;;;19.00;45.60;;;;;;5144234;27;21008;-88
2022/07/16 03:06:43;;;;;;;4.80;3.70;;;18.90;45.70;;;;;;5127939;27;20794;-88
2022/07/16 03:09:37;;;;;;;4.77;2.90;;;18.90;45.90;;;;;;5145513;27;21084;-87
2022/07/16 03:12:05;;;;;;;3.47;3.17;;;18.80;45.80;;;;;;5141030;27;20878;-89
2022/07/16 03:14:31;;;;;;;4.13;3.37;;;18.70;45.70;;;;;;5123268;27;20476;-88
2022/07/16 03:16:58;;;;;;;3.07;2.80;;;18.60;45.70;;;;;;5142497;27;20445;-88
2022/07/16 03:26:03;;;;;;;6.00;3.43;;;18.20;46.00;;;;;;5108382;27;20866;-87
2022/07/16 03:28:30;;;;;;;6.60;2.93;;;17.40;48.00;;;;;;5126121;27;20445;-88
2022/07/16 03:30:57;;;;;;;3.17;2.83;;;17.70;47.90;;;;;;5139779;27;21022;-88
2022/07/16 03:33:24;;;;;;;3.40;3.10;;;17.90;46.90;;;;;;5125167;27;20468;-88
2022/07/16 03:35:50;;;;;;;3.67;3.17;;;18.10;46.10;;;;;;5145549;27;20460;-89
2022/07/16 03:41:03;;;;;;;3.50;3.17;;;18.10;46.40;;;;;;5081108;27;20471;-87
2022/07/16 03:43:30;;;;;;;4.93;2.63;;;18.20;46.60;;;;;;5127953;27;20444;-88
2022/07/16 03:45:57;;;;;;;3.27;2.97;;;18.20;46.20;;;;;;5144666;27;20853;-89
2022/07/16 03:48:24;;;;;;;3.67;3.30;;;18.30;46.20;;;;;;5124728;27;20445;-88
2022/07/16 03:50:51;;;;;;;3.77;2.80;;;18.30;46.10;;;;;;5140172;27;20843;-87
2022/07/16 03:53:17;;;;;;;5.57;2.90;;;18.20;46.40;;;;;;5125653;27;20441;-88
2022/07/16 03:55:44;;;;;;;5.80;3.03;;;18.30;46.60;;;;;;5142147;27;20465;-88
2022/07/16 03:58:13;;;;;;;6.47;3.60;;;18.20;47.00;;;;;;5108711;27;21304;-90
2022/07/16 04:00:40;;;;;;;3.37;3.07;;;18.20;47.60;;;;;;5131455;27;20449;-89
2022/07/16 04:03:07;;;;;;;4.60;3.03;;;18.20;48.10;;;;;;5111375;27;20942;-88
2022/07/16 04:05:33;;;;;;;4.13;3.60;;;18.20;48.40;;;;;;5125146;27;20448;-88
2022/07/16 04:08:01;;;;;;;4.40;3.20;;;18.20;48.70;;;;;;5139861;27;20845;-89
2022/07/16 04:10:28;;;;;;;4.07;3.00;;;18.20;48.70;;;;;;5112724;27;20461;-91
2022/07/16 04:12:55;;;;;;;3.50;3.20;;;18.30;48.20;;;;;;5130250;27;20472;-89
2022/07/16 04:15:24;;;;;;;4.93;3.43;;;18.20;48.90;;;;;;5090988;27;20465;-88
2022/07/16 04:30:14;;;;;;;4.20;2.67;;;18.00;49.50;;;;;;5129192;27;20523;-90
2022/07/16 04:32:42;;;;;;;8.10;3.37;;;18.00;49.20;;;;;;5146671;27;20440;-88
2022/07/16 04:35:11;;;;;;;3.60;3.17;;;18.10;49.10;;;;;;5136006;27;20967;-89
2022/07/16 04:37:38;;;;;;;4.77;3.00;;;18.10;48.80;;;;;;5130247;27;20799;-88
2022/07/16 04:40:07;;;;;;;4.17;3.20;;;18.10;48.70;;;;;;5150924;27;21005;-92
2022/07/16 04:42:36;;;;;;;4.03;3.40;;;18.10;49.00;;;;;;5131059;27;20943;-89
2022/07/16 04:45:03;;;;;;;5.20;3.70;;;18.10;49.30;;;;;;5147427;27;20448;-87
2022/07/16 04:47:30;;;;;;;5.80;3.70;;;18.10;49.00;;;;;;5116634;27;20442;-88
2022/07/16 04:49:59;;;;;;;3.80;3.50;;;18.10;49.00;;;;;;5136848;27;20473;-89
2022/07/16 04:52:27;;;;;;;6.07;3.93;;;18.20;49.00;;;;;;5112059;27;20460;-88
2022/07/16 04:54:54;;;;;;;4.53;3.83;;;18.20;48.80;;;;;;5122963;27;20457;-89
2022/07/16 04:57:21;;;;;;;7.40;3.40;;;18.20;48.80;;;;;;5126397;27;20437;-89
2022/07/16 04:59:48;;;;;;;5.73;3.60;;;18.10;48.80;;;;;;5127964;27;20469;-88
2022/07/16 05:05:00;;;;;;;5.53;3.80;;;18.30;48.80;;;;;;5083233;27;20436;-89
2022/07/16 05:07:27;;;;;;;4.07;3.67;;;18.30;48.70;;;;;;5094808;27;20951;-89
2022/07/16 05:09:54;;;;;;;4.00;3.50;;;18.20;48.30;;;;;;5130887;27;20473;-89
2022/07/16 05:12:21;;;;;;;3.73;3.43;;;18.20;48.50;;;;;;5093997;27;20513;-89
2022/07/16 05:14:47;;;;;;;6.00;3.80;;;18.30;48.40;;;;;;5130572;27;20480;-88
2022/07/16 05:17:14;;;;;;;9.73;4.20;;;18.20;48.40;;;;;;5135481;27;20463;-89
2022/07/16 05:19:41;;;;;;;3.93;3.37;;;18.10;48.60;;;;;;5123729;27;20546;-89
2022/07/16 05:22:10;;;;;;;4.87;3.20;;;18.20;48.60;;;;;;5108054;27;20445;-89
2022/07/16 05:24:37;;;;;;;3.73;3.40;;;18.20;48.40;;;;;;5116331;27;20440;-87
2022/07/16 05:27:04;;;;;;;5.80;4.00;;;18.20;48.30;;;;;;5125946;27;20459;-88
2022/07/16 05:29:31;;;;;;;3.67;3.37;;;18.30;48.60;;;;;;5127086;27;20464;-89
2022/07/16 05:31:58;;;;;;;5.20;3.67;;;18.40;48.10;;;;;;5109587;27;20445;-88
2022/07/16 05:34:25;;;;;;;4.27;3.40;;;18.50;48.00;;;;;;5084931;27;20456;-92
2022/07/16 05:41:26;;;;;;;7.00;3.90;;;18.50;47.90;;;;;;5127364;27;20413;-88
2022/07/16 05:43:53;;;;;;;3.57;3.27;;;18.50;47.60;;;;;;5145137;27;21060;-87
2022/07/16 05:46:20;;;;;;;7.10;3.27;;;18.60;47.60;;;;;;5125082;27;20445;-89
2022/07/16 05:48:47;;;;;;;4.40;3.43;;;18.80;47.90;;;;;;5120042;27;20443;-88
2022/07/16 05:51:14;;;;;;;4.00;3.60;;;19.00;48.10;;;;;;5093363;27;22029;-91
2022/07/16 05:53:41;;;;;;;5.90;3.90;;;18.90;47.50;;;;;;5112844;27;20505;-89
2022/07/16 05:56:08;;;;;;;4.60;3.70;;;18.90;47.20;;;;;;5129523;27;20472;-88
2022/07/16 05:58:36;;;;;;;4.10;3.80;;;18.90;47.30;;;;;;5113610;27;21008;-89
2022/07/16 06:01:03;;;;;;;3.97;3.50;;;18.90;47.10;;;;;;5113186;27;20469;-87
2022/07/16 06:03:30;;;;;;;6.40;3.17;;;18.80;47.30;;;;;;5128187;27;20940;-90
2022/07/16 06:05:57;;;;;;;12.10;4.10;;;18.80;47.30;;;;;;5128771;27;20512;-91
2022/07/16 06:12:32;;;;;;;3.73;3.43;;;19.20;47.50;;;;;;5148821;27;20425;-88
2022/07/16 06:15:00;;;;;;;9.73;3.03;;;19.30;47.00;;;;;;5126074;27;21202;-92
2022/07/16 06:17:27;;;;;;;7.47;3.17;;;19.60;47.00;;;;;;5098674;27;20463;-90
2022/07/16 06:24:27;;;;;;;4.00;3.47;;;20.10;46.70;;;;;;5126600;27;20432;-88
2022/07/16 06:26:54;;;;;;;3.40;3.10;;;20.10;45.40;;;;;;5133087;27;20452;-88
2022/07/16 06:29:21;;;;;;;3.67;3.07;;;20.00;45.40;;;;;;5130784;27;20464;-90
2022/07/16 06:31:49;;;;;;;3.63;3.33;;;20.00;45.60;;;;;;5114139;27;20455;-88
2022/07/16 06:34:16;;;;;;;5.20;3.80;;;20.40;45.80;;;;;;5128870;27;20493;-88
2022/07/16 06:36:43;;;;;;;2.90;2.70;;;20.50;44.70;;;;;;5150345;27;20448;-91
2022/07/16 06:39:10;;;;;;;3.60;3.07;;;20.70;44.40;;;;;;5140172;27;20449;-88
2022/07/16 06:41:38;;;;;;;3.90;3.60;;;20.70;44.00;;;;;;5120957;27;20445;-88
2022/07/16 06:44:06;;;;;;;4.07;3.13;;;20.50;43.70;;;;;;5127731;27;20433;-90
2022/07/16 06:46:33;;;;;;;2.60;2.40;;;20.70;44.40;;;;;;5109995;27;20445;-89
2022/07/16 06:49:01;;;;;;;7.37;3.47;;;21.00;44.00;;;;;;5087585;27;20452;-89
2022/07/16 06:51:28;;;;;;;3.60;2.50;;;21.30;43.70;;;;;;5132497;27;20432;-89
2022/07/16 06:53:55;;;;;;;4.33;2.90;;;21.60;43.10;;;;;;5148736;27;20449;-88
2022/07/16 06:56:22;;;;;;;11.53;3.03;;;21.80;43.30;;;;;;5150641;27;20487;-90
2022/07/16 06:58:49;;;;;;;7.13;2.80;;;21.70;42.50;;;;;;5118567;27;20450;-88
2022/07/16 07:01:16;;;;;;;6.67;2.57;;;21.70;42.60;;;;;;5121536;27;20453;-88
2022/07/16 07:03:43;;;;;;;10.20;3.50;;;21.70;42.30;;;;;;5111704;27;20494;-88
2022/07/16 07:06:11;;;;;;;2.80;2.50;;;21.60;42.40;;;;;;5107950;27;20441;-88
2022/07/16 07:11:55;;;;;;;3.20;2.30;;;21.50;41.70;;;;;;5121242;27;20496;-87
2022/07/16 07:18:54;;;;;;;2.40;2.20;;;22.00;41.30;;;;;;5124372;27;20437;-89
2022/07/16 07:21:23;;;;;;;5.53;2.70;;;22.20;41.70;;;;;;5120896;27;20468;-88
2022/07/16 07:23:50;;;;;;;2.90;2.20;;;22.30;41.00;;;;;;5123933;27;20852;-85
2022/07/16 07:26:17;;;;;;;2.37;2.17;;;22.40;40.60;;;;;;5140241;27;20441;-87
2022/07/16 07:28:44;;;;;;;5.10;2.10;;;22.70;40.40;;;;;;5108163;27;20476;-88
2022/07/16 07:31:11;;;;;;;2.93;2.40;;;23.00;40.20;;;;;;5106133;27;20448;-87
2022/07/16 07:33:38;;;;;;;3.00;2.00;;;23.20;39.50;;;;;;5125215;27;20498;-89
2022/07/16 07:36:06;;;;;;;4.67;2.30;;;23.20;39.60;;;;;;5119998;27;21058;-87
2022/07/16 07:38:34;;;;;;;4.80;2.00;;;23.40;39.20;;;;;;5138279;27;20483;-87
2022/07/16 07:41:01;;;;;;;4.10;1.73;;;23.70;38.40;;;;;;5123406;27;20457;-87
2022/07/16 07:43:28;;;;;;;2.80;1.40;;;23.90;38.00;;;;;;5123133;27;20525;-87
2022/07/16 07:45:55;;;;;;;1.60;1.30;;;24.00;36.80;;;;;;5119012;27;21023;-85
2022/07/16 07:48:23;;;;;;;6.80;1.30;;;24.10;36.40;;;;;;5117124;27;20464;-88
2022/07/16 07:50:50;;;;;;;3.60;1.33;;;24.30;36.10;;;;;;5131938;27;20497;-86
2022/07/16 07:53:17;;;;;;;1.97;1.60;;;24.50;35.10;;;;;;5136773;27;20476;-86
2022/07/16 07:55:45;;;;;;;3.67;1.60;;;24.60;35.00;;;;;;5139137;27;20473;-86
2022/07/16 07:58:12;;;;;;;1.40;1.30;;;24.70;34.60;;;;;;5137771;27;20979;-87
2022/07/16 08:00:39;;;;;;;2.60;1.40;;;24.80;33.90;;;;;;5097603;27;20484;-87
2022/07/16 08:03:06;;;;;;;1.50;1.40;;;24.90;34.90;;;;;;5119979;27;20438;-87
2022/07/16 08:05:33;;;;;;;1.47;1.37;;;25.00;34.30;;;;;;5136482;27;20441;-88
2022/07/16 08:14:09;;;;;;;4.83;1.67;;;25.40;34.30;;;;;;5120994;27;20995;-89
2022/07/16 08:16:37;;;;;;;2.03;1.93;;;25.60;33.80;;;;;;5121649;27;20461;-87
2022/07/16 08:19:04;;;;;;;2.63;1.80;;;25.80;33.60;;;;;;5132504;27;21906;-88
2022/07/16 08:21:32;;;;;;;2.33;1.50;;;25.90;33.00;;;;;;5136051;27;20445;-87
2022/07/16 08:26:53;;;;;;;2.13;1.70;;;26.10;33.40;;;;;;5117012;27;20441;-88
2022/07/16 08:29:20;;;;;;;1.70;1.60;;;26.00;32.60;;;;;;5122344;27;21092;-87
2022/07/16 08:31:47;;;;;;;4.20;1.80;;;26.00;33.10;;;;;;5106443;27;20527;-86
2022/07/16 08:34:14;;;;;;;6.90;2.30;;;26.00;33.50;;;;;;5118416;27;20464;-88
2022/07/16 08:36:41;;;;;;;1.70;1.60;;;26.00;32.80;;;;;;5125556;27;20473;-88
2022/07/16 08:39:59;;;;;;;3.00;1.77;;;25.90;32.80;;;;;;5137396;27;20460;-87
2022/07/16 08:46:59;;;;;;;3.43;2.03;;;26.30;32.20;;;;;;5123775;27;20425;-85
2022/07/16 08:49:29;;;;;;;4.47;2.07;;;26.20;32.60;;;;;;5107628;27;20488;-85
2022/07/16 08:52:00;;;;;;;1.73;1.53;;;26.30;33.20;;;;;;5124022;27;20449;-87
2022/07/16 08:58:35;;;;;;;1.70;1.50;;;26.90;32.00;;;;;;5126266;27;20458;-84
2022/07/16 09:01:52;;;;;;;2.20;2.00;;;26.90;31.70;;;;;;5122841;27;20924;-85
2022/07/16 09:04:46;;;;;;;2.57;1.80;;;26.80;31.70;;;;;;5142170;27;20555;-87
2022/07/16 09:07:13;;;;;;;3.87;1.77;;;27.00;32.50;;;;;;5137021;27;20441;-86
2022/07/16 09:09:40;;;;;;;1.90;1.70;;;27.10;31.00;;;;;;5122727;27;20799;-85
2022/07/16 09:12:08;;;;;;;3.50;1.50;;;26.70;32.20;;;;;;5105345;27;20553;-85
2022/07/16 09:14:35;;;;;;;2.37;1.53;;;26.50;31.20;;;;;;5126125;27;20480;-85
2022/07/16 09:25:49;;;;;;;2.50;1.67;;;26.80;31.20;;;;;;5123443;27;21007;-88
2022/07/16 09:28:16;;;;;;;1.73;1.60;;;27.20;32.30;;;;;;5123520;27;20450;-86
2022/07/16 09:30:43;;;;;;;2.30;1.90;;;27.50;30.60;;;;;;5103846;27;20472;-85
2022/07/16 09:33:16;;;;;;;3.00;1.57;;;27.40;30.30;;;;;;5122863;27;20449;-85
2022/07/16 09:35:44;;;;;;;2.17;1.97;;;27.50;30.00;;;;;;5141261;27;20936;-87
2022/07/16 09:38:11;;;;;;;2.10;1.50;;;27.30;30.90;;;;;;5139886;27;20500;-85
2022/07/16 09:40:40;;;;;;;3.13;1.70;;;27.30;31.80;;;;;;5129587;27;20472;-86
2022/07/16 09:43:20;;;;;;;2.90;1.77;;;27.40;30.40;;;;;;5103017;27;20461;-86
2022/07/16 09:45:49;;;;;;;2.30;1.70;;;27.60;30.40;;;;;;5125286;27;20444;-85
2022/07/16 09:48:22;;;;;;;1.80;1.50;;;27.50;29.00;;;;;;5119752;27;20454;-85
2022/07/16 09:50:50;;;;;;;8.17;3.70;;;27.40;29.70;;;;;;5123491;27;20999;-86
2022/07/16 09:53:18;;;;;;;2.03;1.80;;;27.50;30.00;;;;;;5134542;27;20975;-86
2022/07/16 09:55:56;;;;;;;2.07;1.83;;;27.40;30.00;;;;;;5137437;27;20469;-86
2022/07/16 09:58:25;;;;;;;3.00;1.67;;;27.40;29.80;;;;;;5133865;27;20441;-88
2022/07/16 10:00:52;;;;;;;3.43;1.47;;;27.30;29.20;;;;;;5120468;27;20861;-85
2022/07/16 10:03:20;;;;;;;1.70;1.60;;;27.50;29.70;;;;;;5143482;27;20455;-86
2022/07/16 10:05:47;;;;;;;2.30;1.40;;;27.60;29.60;;;;;;5125342;27;20536;-86
2022/07/16 10:08:14;;;;;;;2.80;1.57;;;28.00;28.50;;;;;;5140415;27;20817;-86
2022/07/16 10:10:41;;;;;;;2.10;1.57;;;28.10;29.00;;;;;;5126049;27;20525;-87
2022/07/16 10:13:09;;;;;;;2.07;1.87;;;28.40;29.40;;;;;;5133775;27;20824;-85
2022/07/16 10:15:38;;;;;;;4.47;1.70;;;28.30;28.30;;;;;;5128866;27;20539;-85
2022/07/16 10:18:32;;;;;;;4.23;1.67;;;28.30;28.00;;;;;;5138552;27;20441;-85
2022/07/16 10:21:04;;;;;;;4.33;1.80;;;28.30;27.70;;;;;;5128845;27;20480;-87
2022/07/16 10:23:31;;;;;;;1.87;1.77;;;28.60;28.20;;;;;;5125753;27;20835;-86
2022/07/16 10:25:59;;;;;;;1.70;1.57;;;28.80;27.60;;;;;;5100130;27;20448;-86
2022/07/16 10:28:38;;;;;;;3.87;1.77;;;29.00;27.90;;;;;;5123264;27;20812;-85
2022/07/16 10:34:34;;;;;;;2.27;1.87;;;29.30;27.60;;;;;;5083179;27;20491;-87
2022/07/16 10:37:02;;;;;;;2.73;1.60;;;29.40;26.90;;;;;;5149059;27;20457;-86
2022/07/16 10:39:30;;;;;;;2.33;1.90;;;28.60;27.00;;;;;;5124739;27;20449;-87
2022/07/16 10:52:43;;;;;;;2.20;1.90;;;29.20;27.70;;;;;;5139757;27;20563;-85
2022/07/16 10:55:09;;;;;;;2.17;1.90;;;29.20;27.80;;;;;;5114588;27;20453;-86
2022/07/16 10:57:38;;;;;;;2.53;1.80;;;29.10;27.50;;;;;;5127911;27;20472;-87
2022/07/16 11:00:06;;;;;;;1.60;1.50;;;28.80;27.70;;;;;;5137608;27;21129;-86
2022/07/16 11:02:38;;;;;;;1.70;1.60;;;28.60;28.30;;;;;;5126046;27;20457;-86
2022/07/16 11:05:07;;;;;;;9.80;2.00;;;28.60;27.90;;;;;;5124643;27;20449;-86
2022/07/16 11:07:36;;;;;;;2.30;2.10;;;28.60;28.40;;;;;;5144903;27;21413;-88
2022/07/16 11:10:05;;;;;;;1.73;1.63;;;28.90;28.20;;;;;;5130795;27;20479;-86
2022/07/16 11:12:34;;;;;;;2.10;1.90;;;29.30;27.80;;;;;;5139455;27;20480;-87
2022/07/16 11:15:02;;;;;;;2.40;2.13;;;29.50;27.60;;;;;;5122697;27;20875;-87
2022/07/16 11:17:31;;;;;;;6.73;1.80;;;29.40;27.40;;;;;;5108364;27;20488;-85
2022/07/16 11:20:00;;;;;;;2.93;1.93;;;29.10;27.10;;;;;;5125555;27;20466;-86
2022/07/16 11:22:30;;;;;;;5.57;2.00;;;29.20;27.80;;;;;;5125567;27;20532;-85
2022/07/16 11:29:31;;;;;;;2.30;2.13;;;30.00;27.50;;;;;;5143888;27;20448;-89
2022/07/16 11:32:00;;;;;;;2.30;2.10;;;30.00;27.30;;;;;;5141465;27;20940;-88
2022/07/16 11:34:32;;;;;;;2.47;2.20;;;29.80;27.20;;;;;;5135634;27;20458;-86
2022/07/16 11:37:48;;;;;;;2.93;2.00;;;29.40;27.60;;;;;;5144077;27;20962;-86
2022/07/16 11:45:42;;;;;;;2.63;2.13;;;29.60;27.10;;;;;;5122720;27;20794;-88
2022/07/16 11:48:10;;;;;;;2.40;2.20;;;29.90;26.70;;;;;;5137863;27;21100;-88
2022/07/16 11:50:37;;;;;;;3.00;2.30;;;29.90;26.70;;;;;;5120394;27;20469;-87
2022/07/16 11:53:04;;;;;;;2.53;2.33;;;29.90;27.30;;;;;;5134823;27;20820;-86
2022/07/16 11:55:31;;;;;;;2.47;2.27;;;30.20;26.90;;;;;;5124468;27;20463;-87
2022/07/16 11:57:59;;;;;;;2.80;2.60;;;30.20;26.70;;;;;;5107597;27;20457;-88
2022/07/16 12:04:09;;;;;;;2.50;2.30;;;30.00;27.20;;;;;;5138161;27;20494;-85
2022/07/16 12:06:37;;;;;;;2.63;2.43;;;29.80;26.30;;;;;;5141793;27;20449;-86
2022/07/16 12:09:04;;;;;;;2.50;2.30;;;29.20;26.90;;;;;;5141749;27;20448;-87
2022/07/16 12:11:33;;;;;;;3.37;2.03;;;29.00;27.40;;;;;;5121819;27;20445;-85
2022/07/16 12:14:01;;;;;;;2.30;2.10;;;28.90;27.60;;;;;;5141513;27;21074;-88
2022/07/16 12:16:29;;;;;;;3.33;2.27;;;28.60;28.00;;;;;;5140735;27;20472;-84
2022/07/16 12:23:10;;;;;;;4.60;2.63;;;28.90;27.90;;;;;;5134778;27;20440;-82
2022/07/16 12:25:39;;;;;;;2.50;2.30;;;28.70;28.60;;;;;;5140240;27;20436;-83
2022/07/16 12:28:08;;;;;;;3.13;2.40;;;29.00;28.70;;;;;;5125665;27;20461;-86
2022/07/16 12:42:35;;;;;;;3.40;2.37;;;30.30;26.90;;;;;;5120328;27;20413;-84
2022/07/16 12:45:02;;;;;;;8.20;2.30;;;30.60;26.30;;;;;;5124093;27;20452;-85
2022/07/16 12:47:30;;;;;;;2.93;2.50;;;30.40;26.50;;;;;;5127040;27;20441;-86
2022/07/16 12:49:57;;;;;;;3.57;2.60;;;30.10;26.40;;;;;;5140734;27;20542;-86
2022/07/16 13:11:17;;;;;;;2.20;1.83;;;30.40;26.20;;;;;;5125678;27;20535;-85
2022/07/16 13:13:45;;;;;;;3.07;2.27;;;30.50;26.00;;;;;;5143354;27;20988;-86
2022/07/16 13:16:13;;;;;;;3.33;2.20;;;30.00;26.10;;;;;;5135634;27;20445;-83
2022/07/16 13:18:40;;;;;;;7.93;2.40;;;29.60;26.90;;;;;;5138376;27;20453;-85
2022/07/16 13:21:07;;;;;;;6.57;2.10;;;29.30;27.50;;;;;;5120828;27;20465;-85
2022/07/16 13:31:47;;;;;;;2.70;2.23;;;28.70;28.30;;;;;;5137652;27;21003;-89
2022/07/16 13:34:14;;;;;;;3.40;1.93;;;28.80;28.80;;;;;;5120168;27;20858;-85
2022/07/16 13:36:41;;;;;;;2.40;1.97;;;28.80;28.40;;;;;;5124602;27;20461;-86
2022/07/16 13:39:08;;;;;;;2.93;2.40;;;28.70;28.00;;;;;;5131961;27;20544;-85
2022/07/16 13:41:35;;;;;;;2.80;2.50;;;28.50;28.70;;;;;;5104068;27;20448;-86
2022/07/16 13:44:02;;;;;;;8.30;2.63;;;28.50;29.60;;;;;;5122028;27;20453;-87
2022/07/16 13:46:29;;;;;;;2.83;2.43;;;28.70;28.50;;;;;;5142818;27;20521;-87
2022/07/16 13:48:57;;;;;;;3.17;2.97;;;28.90;28.30;;;;;;5140261;27;20453;-85
2022/07/16 13:51:24;;;;;;;2.43;2.07;;;29.30;27.90;;;;;;5099699;27;20460;-88
2022/07/16 13:53:51;;;;;;;3.03;1.70;;;29.60;27.60;;;;;;5123388;27;20465;-88
2022/07/16 13:56:18;;;;;;;3.37;2.53;;;29.70;27.90;;;;;;5140574;27;20448;-86
2022/07/16 13:58:45;;;;;;;2.23;2.03;;;30.00;27.20;;;;;;5142530;27;20445;-85
2022/07/16 14:02:03;;;;;;;2.40;2.20;;;30.10;26.70;;;;;;5109760;27;20456;-87
2022/07/16 14:05:46;;;;;;;2.60;2.27;;;30.40;25.30;;;;;;5119427;27;20535;-86
2022/07/16 14:08:15;;;;;;;3.37;1.90;;;30.70;25.80;;;;;;5119268;27;20449;-85
2022/07/16 14:10:42;;;;;;;6.23;2.83;;;31.20;25.30;;;;;;5109127;27;21019;-85
2022/07/16 14:13:09;;;;;;;2.70;2.00;;;31.10;24.50;;;;;;5120930;27;20444;-85
2022/07/16 14:15:37;;;;;;;2.33;1.93;;;31.00;24.90;;;;;;5141146;27;20481;-86
2022/07/16 14:18:06;;;;;;;3.23;2.17;;;31.00;25.40;;;;;;5121682;27;21387;-84
2022/07/16 14:20:34;;;;;;;3.40;1.90;;;31.20;25.30;;;;;;5119070;27;20461;-85
2022/07/16 14:23:01;;;;;;;2.87;1.87;;;31.20;25.00;;;;;;5136819;27;20448;-85
2022/07/16 14:25:30;;;;;;;2.60;2.10;;;31.40;25.20;;;;;;5136777;27;20449;-87
2022/07/16 14:27:57;;;;;;;2.17;1.90;;;31.30;24.90;;;;;;5130313;27;20437;-87
2022/07/16 14:30:24;;;;;;;1.97;1.60;;;31.20;25.50;;;;;;5121570;27;20883;-84
2022/07/16 14:32:52;;;;;;;4.43;2.20;;;31.30;25.90;;;;;;5121447;27;20464;-85
2022/07/16 14:42:44;;;;;;;2.40;2.20;;;31.00;26.30;;;;;;5114549;27;20959;-87
2022/07/16 14:45:13;;;;;;;3.30;2.27;;;30.60;26.70;;;;;;5138764;27;20445;-83
2022/07/16 14:50:58;;;;;;;2.43;2.10;;;30.80;26.90;;;;;;5108216;27;20474;-86
2022/07/16 14:58:23;;;;;;;2.10;1.93;;;30.60;26.40;;;;;;5126040;27;20467;-86
2022/07/16 15:08:44;;;;;;;2.33;2.10;;;30.60;26.30;;;;;;5141167;27;20538;-86
2022/07/16 15:11:11;;;;;;;2.77;2.43;;;30.30;26.40;;;;;;5143055;27;20464;-85
2022/07/16 15:13:38;;;;;;;2.33;2.13;;;30.40;27.10;;;;;;5125698;27;21413;-85
2022/07/16 15:16:31;;;;;;;2.07;1.97;;;30.50;26.90;;;;;;5124616;27;20457;-88
2022/07/16 15:18:59;;;;;;;2.57;2.37;;;30.60;25.20;;;;;;5124625;27;20467;-85
2022/07/16 15:21:26;;;;;;;4.60;2.33;;;30.60;25.50;;;;;;5144276;27;20475;-83
2022/07/16 15:24:20;;;;;;;3.07;1.70;;;30.70;25.90;;;;;;5148490;27;20437;-88
2022/07/16 15:26:47;;;;;;;2.00;1.90;;;30.60;25.70;;;;;;5147985;27;20444;-87
2022/07/16 15:29:14;;;;;;;2.40;2.20;;;30.50;25.20;;;;;;5141932;27;20441;-85
2022/07/16 15:31:41;;;;;;;2.60;2.10;;;30.40;25.80;;;;;;5109054;27;20471;-87
2022/07/16 15:34:08;;;;;;;2.70;2.00;;;30.20;26.30;;;;;;5141794;27;20543;-86
2022/07/16 15:36:35;;;;;;;4.17;2.27;;;30.30;26.40;;;;;;5145850;27;20453;-86
2022/07/16 15:43:13;;;;;;;4.20;2.37;;;30.40;26.00;;;;;;5125378;27;20432;-87
2022/07/16 15:45:40;;;;;;;2.00;1.90;;;30.50;25.50;;;;;;5142244;27;20456;-86
2022/07/16 15:52:39;;;;;;;1.90;1.80;;;29.80;25.50;;;;;;5124134;27;21400;-88
2022/07/16 15:59:41;;;;;;;2.20;2.00;;;30.10;24.60;;;;;;5138084;27;20788;-85
2022/07/16 16:02:08;;;;;;;2.70;2.40;;;30.30;25.50;;;;;;5124608;27;20460;-89
2022/07/16 16:04:35;;;;;;;3.50;2.13;;;30.40;25.40;;;;;;5099731;27;20441;-87
2022/07/16 16:07:03;;;;;;;2.37;1.77;;;30.50;25.00;;;;;;5119133;27;20449;-89
2022/07/16 16:09:30;;;;;;;2.17;1.97;;;30.70;25.10;;;;;;5125720;27;20483;-85
2022/07/16 16:16:07;;;;;;;2.30;2.10;;;30.50;25.60;;;;;;5112820;27;20425;-85
2022/07/16 16:18:34;;;;;;;2.47;2.00;;;30.20;25.70;;;;;;5146703;27;20491;-86
2022/07/16 16:21:01;;;;;;;2.13;2.03;;;29.90;26.80;;;;;;5122175;27;20508;-88